createdAt,value
2019-05-18T00:02:46.385Z,70.84
2019-05-18T00:07:47.254Z,70.92
2019-05-18T00:12:48.255Z,71.46
2019-05-18T00:17:49.249Z,71.28
2019-05-18T00:22:50.125Z,71.65
2019-05-18T00:27:51.037Z,72.22
2019-05-18T00:32:51.904Z,71.39
2019-05-18T00:37:52.861Z,71.03
2019-05-18T00:42:53.684Z,72.40
2019-05-18T00:47:54.565Z,72.08
2019-05-18T00:52:55.493Z,72.76
2019-05-18T00:57:56.467Z,71.93
2019-05-18T01:02:57.372Z,72.37
2019-05-18T01:07:58.339Z,71.25
2019-05-18T01:12:59.245Z,72.52
2019-05-18T01:18:02.363Z,71.73
2019-05-18T01:23:03.062Z,72.35
2019-05-18T01:28:04.242Z,72.42
2019-05-18T01:33:05.255Z,74.01
2019-05-18T01:38:06.355Z,73.54
2019-05-18T01:43:07.249Z,72.62
2019-05-18T01:48:14.236Z,73.70
2019-05-18T01:53:10.942Z,73.77
2019-05-18T01:58:11.833Z,73.63
2019-05-18T02:03:12.738Z,73.29
2019-05-18T02:08:13.621Z,73.60
2019-05-18T02:13:14.522Z,73.68
2019-05-18T02:18:28.309Z,74.04
2019-05-18T02:23:18.262Z,74.28
2019-05-18T02:28:19.260Z,73.50
2019-05-18T02:33:20.166Z,74.09
2019-05-18T02:38:21.257Z,74.71
2019-05-18T02:43:22.205Z,74.39
2019-05-18T02:48:23.095Z,74.94
2019-05-18T02:53:23.935Z,74.26
2019-05-18T02:58:24.856Z,74.44
2019-05-18T03:03:25.847Z,74.17
2019-05-18T03:08:26.851Z,75.53
2019-05-18T03:13:27.904Z,74.32
2019-05-18T03:18:28.799Z,74.78
2019-05-18T03:23:29.779Z,74.01
2019-05-18T03:28:30.680Z,74.74
2019-05-18T03:33:31.657Z,75.07
2019-05-18T03:38:32.542Z,74.67
2019-05-18T03:43:33.542Z,74.55
2019-05-18T03:48:34.421Z,73.88
2019-05-18T03:53:35.287Z,74.48
2019-05-18T03:58:36.164Z,74.40
2019-05-18T04:03:37.047Z,74.45
2019-05-18T04:08:37.909Z,74.93
2019-05-18T04:13:38.792Z,76.14
2019-05-18T04:18:39.675Z,74.27
2019-05-18T04:23:40.543Z,75.12
2019-05-18T04:28:41.436Z,74.96
2019-05-18T04:33:42.459Z,75.66
2019-05-18T04:38:43.324Z,75.63
2019-05-18T04:43:44.362Z,75.01
2019-05-18T04:48:45.218Z,74.97
2019-05-18T04:53:46.086Z,76.23
2019-05-18T04:58:47.067Z,76.23
2019-05-18T05:03:48.064Z,76.02
2019-05-18T05:08:48.948Z,75.43
2019-05-18T05:13:49.904Z,74.63
2019-05-18T05:18:51.091Z,75.17
2019-05-18T05:23:52.502Z,75.27
2019-05-18T05:28:53.941Z,74.69
2019-05-18T05:33:54.812Z,74.01
2019-05-18T05:38:55.693Z,73.51
2019-05-18T05:43:56.571Z,73.01
2019-05-18T05:48:58.435Z,72.43
2019-05-18T05:53:59.346Z,71.13
2019-05-18T05:59:00.411Z,71.13
2019-05-18T06:04:01.303Z,70.98
2019-05-18T06:09:05.087Z,70.25
2019-05-18T06:14:06.172Z,70.00
2019-05-18T06:19:07.334Z,70.00
2019-05-18T06:24:08.322Z,67.61
2019-05-18T06:29:09.196Z,68.58
2019-05-18T06:34:10.072Z,68.75
2019-05-18T06:39:10.947Z,67.24
2019-05-18T06:44:11.845Z,67.09
2019-05-18T06:49:12.730Z,65.59
2019-05-18T06:54:13.601Z,65.75
2019-05-18T06:59:16.473Z,66.44
2019-05-18T07:04:17.630Z,63.95
2019-05-18T07:09:18.460Z,64.57
2019-05-18T07:14:25.632Z,64.33
2019-05-18T07:19:22.196Z,62.62
2019-05-18T07:24:23.083Z,63.08
2019-05-18T07:29:24.060Z,62.73
2019-05-18T07:34:26.717Z,62.34
2019-05-18T07:39:27.763Z,60.29
2019-05-18T07:44:28.634Z,61.00
2019-05-18T07:49:29.506Z,60.31
2019-05-18T07:54:30.375Z,60.74
2019-05-18T07:59:31.248Z,61.46
2019-05-18T08:04:32.124Z,59.55
2019-05-18T08:09:33.008Z,57.96
2019-05-18T08:14:33.868Z,56.57
2019-05-18T08:19:34.767Z,55.43
2019-05-18T08:24:35.651Z,56.31
2019-05-18T08:29:36.524Z,56.26
2019-05-18T08:34:37.397Z,54.03
2019-05-18T08:39:38.295Z,54.34
2019-05-18T08:44:39.157Z,53.01
2019-05-18T08:49:40.057Z,49.93
2019-05-18T08:54:40.910Z,48.76
2019-05-18T08:59:41.811Z,51.92
2019-05-18T09:04:42.652Z,50.70
2019-05-18T09:09:43.532Z,51.49
2019-05-18T09:14:44.429Z,50.30
2019-05-18T09:19:45.505Z,50.26
2019-05-18T09:24:46.474Z,46.90
2019-05-18T09:29:47.356Z,43.13
2019-05-18T09:34:48.281Z,43.99
2019-05-18T09:39:49.258Z,45.64
2019-05-18T09:44:50.113Z,44.34
2019-05-18T09:49:51.151Z,41.15
2019-05-18T09:54:52.017Z,42.57
2019-05-18T09:59:52.883Z,40.42
2019-05-18T10:04:53.807Z,38.78
2019-05-18T10:09:54.677Z,39.60
2019-05-18T10:14:55.579Z,38.66
2019-05-18T10:19:56.428Z,38.79
2019-05-18T10:24:57.305Z,39.28
2019-05-18T10:29:58.952Z,36.05
2019-05-18T10:34:59.926Z,35.20
2019-05-18T10:40:04.976Z,37.09
2019-05-18T10:45:06.646Z,37.99
2019-05-18T10:50:07.926Z,38.10
2019-05-18T10:55:09.211Z,34.50
2019-05-18T11:00:10.548Z,38.87
2019-05-18T11:05:15.123Z,36.54
2019-05-18T11:10:18.727Z,35.29
2019-05-18T11:15:21.831Z,37.49
2019-05-18T11:20:23.134Z,36.44
2019-05-18T11:25:24.098Z,35.58
2019-05-18T11:30:25.294Z,36.27
2019-05-18T12:05:42.772Z,34.54
2019-05-18T12:10:43.744Z,35.72
2019-05-18T12:15:48.023Z,34.43
2019-05-18T12:20:49.104Z,34.13
2019-05-18T12:25:50.802Z,34.20
2019-05-18T12:30:52.036Z,35.68
2019-05-18T12:35:53.043Z,36.78
2019-05-18T12:40:53.888Z,36.28
2019-05-18T12:45:54.880Z,36.28
2019-05-18T12:50:57.957Z,37.20
2019-05-18T12:55:58.831Z,35.24
2019-05-18T13:00:59.708Z,36.01
2019-05-18T13:06:00.568Z,35.49
2019-05-18T13:11:01.435Z,35.39
2019-05-18T13:16:02.444Z,36.97
2019-05-18T13:21:03.420Z,37.34
2019-05-18T13:26:04.503Z,34.86
2019-05-18T13:31:05.384Z,34.10
2019-05-18T13:36:06.264Z,37.91
2019-05-18T13:41:07.234Z,39.37
2019-05-18T13:46:08.234Z,36.64
2019-05-18T13:51:09.079Z,37.75
2019-05-18T13:56:15.610Z,36.85
2019-05-18T14:01:20.545Z,35.55
2019-05-18T14:06:27.814Z,35.07
2019-05-18T14:11:36.667Z,36.03
2019-05-18T14:16:42.474Z,36.68
2019-05-18T14:21:50.115Z,34.01
2019-05-18T14:26:51.990Z,35.78
2019-05-18T14:31:52.995Z,34.48
2019-05-18T14:36:59.507Z,33.26
2019-05-18T14:42:00.448Z,35.52
2019-05-18T14:47:01.316Z,35.91
2019-05-18T14:52:02.285Z,34.73
2019-05-18T14:57:03.296Z,32.13
2019-05-18T15:02:04.297Z,34.84
2019-05-18T15:07:05.185Z,33.30
2019-05-18T15:12:06.269Z,33.21
2019-05-18T15:17:07.264Z,37.47
2019-05-18T15:22:08.135Z,35.15
2019-05-18T15:27:09.110Z,34.69
2019-05-18T15:32:10.085Z,33.13
2019-05-18T15:37:11.103Z,32.05
2019-05-18T15:42:12.172Z,32.99
2019-05-18T15:47:13.046Z,34.03
2019-05-18T15:52:13.920Z,33.75
2019-05-18T15:57:14.782Z,32.48
2019-05-18T16:02:15.756Z,33.29
2019-05-18T16:07:16.708Z,32.31
2019-05-18T16:12:17.564Z,32.80
2019-05-18T16:17:18.439Z,33.30
2019-05-18T16:22:19.332Z,31.99
2019-05-18T16:27:20.199Z,35.04
2019-05-18T16:32:21.178Z,33.39
2019-05-18T16:37:22.076Z,35.55
2019-05-18T16:42:22.944Z,36.36
2019-05-18T16:47:23.821Z,34.27
2019-05-18T16:52:24.817Z,35.26
2019-05-18T16:57:25.668Z,36.06
2019-05-18T17:02:31.643Z,36.55
2019-05-18T17:07:29.523Z,37.72
2019-05-18T17:12:30.495Z,36.75
2019-05-18T17:17:34.870Z,37.18
2019-05-18T17:22:34.184Z,39.62
2019-05-18T17:27:35.064Z,40.92
2019-05-18T17:32:35.948Z,41.07
2019-05-18T17:37:36.823Z,40.52
2019-05-18T17:42:37.705Z,40.77
2019-05-18T17:47:38.572Z,41.94
2019-05-18T17:52:39.556Z,42.79
2019-05-18T17:57:40.538Z,44.19
2019-05-18T18:02:41.517Z,45.51
2019-05-18T18:07:42.390Z,44.91
2019-05-18T18:12:43.259Z,45.68
2019-05-18T18:17:44.135Z,45.77
2019-05-18T18:22:45.042Z,46.09
2019-05-18T18:27:45.900Z,46.04
2019-05-18T18:32:46.767Z,45.65
2019-05-18T18:37:47.637Z,47.77
2019-05-18T18:42:48.546Z,46.60
2019-05-18T18:47:49.428Z,48.01
2019-05-18T18:52:50.426Z,47.61
2019-05-18T18:57:51.300Z,47.98
2019-05-18T19:02:52.292Z,49.09
2019-05-18T19:07:53.167Z,49.75
2019-05-18T19:12:54.045Z,50.17
2019-05-18T19:17:54.917Z,50.13
2019-05-18T19:22:56.372Z,51.50
2019-05-18T19:27:59.646Z,51.15
2019-05-18T19:33:02.467Z,51.83
2019-05-18T19:38:03.523Z,51.97
2019-05-18T19:43:04.383Z,52.60
2019-05-18T19:48:05.263Z,53.01
2019-05-18T19:53:06.165Z,53.01
2019-05-18T19:58:09.202Z,52.79
2019-05-18T20:03:09.948Z,52.95
2019-05-18T20:08:10.810Z,52.45
2019-05-18T20:13:11.693Z,53.84
2019-05-18T20:18:12.587Z,53.45
